sensor_id;sensor_type;location;lat;lon;timestamp;pressure;altitude;pressure_sealevel;temperature;humidity
57024;BME280;42916;54.346;18.562;2023-02-12T00:01:14;101913.26;;;1.57;93.39
57024;BME280;42916;54.346;18.562;2023-02-12T00:03:47;101916.80;;;1.56;93.68
57024;BME280;42916;54.346;18.562;2023-02-12T00:06:14;101919.08;;;1.55;93.60
57024;BME280;42916;54.346;18.562;2023-02-12T00:08:41;101923.30;;;1.54;93.60
57024;BME280;42916;54.346;18.562;2023-02-12T00:11:13;101925.98;;;1.55;93.69
57024;BME280;42916;54.346;18.562;2023-02-12T00:13:41;101925.63;;;1.57;93.54
57024;BME280;42916;54.346;18.562;2023-02-12T00:16:11;101927.82;;;1.58;93.26
57024;BME280;42916;54.346;18.562;2023-02-12T00:18:39;101939.02;;;1.59;93.18
57024;BME280;42916;54.346;18.562;2023-02-12T00:21:06;101939.77;;;1.59;93.51
57024;BME280;42916;54.346;18.562;2023-02-12T00:23:34;101938.30;;;1.59;93.36
57024;BME280;42916;54.346;18.562;2023-02-12T00:26:08;101941.80;;;1.58;93.21
57024;BME280;42916;54.346;18.562;2023-02-12T00:28:35;101946.17;;;1.57;93.40
57024;BME280;42916;54.346;18.562;2023-02-12T00:31:11;101947.39;;;1.58;93.75
57024;BME280;42916;54.346;18.562;2023-02-12T00:33:38;101952.20;;;1.59;93.84
57024;BME280;42916;54.346;18.562;2023-02-12T00:36:07;101955.81;;;1.59;93.60
57024;BME280;42916;54.346;18.562;2023-02-12T00:38:34;101963.48;;;1.58;93.57
57024;BME280;42916;54.346;18.562;2023-02-12T00:41:03;101962.69;;;1.55;93.57
57024;BME280;42916;54.346;18.562;2023-02-12T00:43:30;101963.08;;;1.53;93.43
57024;BME280;42916;54.346;18.562;2023-02-12T00:45:56;101963.27;;;1.53;93.11
57024;BME280;42916;54.346;18.562;2023-02-12T00:48:23;101968.80;;;1.53;92.91
57024;BME280;42916;54.346;18.562;2023-02-12T00:50:50;101970.17;;;1.51;93.18
57024;BME280;42916;54.346;18.562;2023-02-12T00:53:17;101974.23;;;1.50;93.03
57024;BME280;42916;54.346;18.562;2023-02-12T00:55:44;101976.73;;;1.48;93.11
57024;BME280;42916;54.346;18.562;2023-02-12T00:58:11;101972.64;;;1.48;93.11
57024;BME280;42916;54.346;18.562;2023-02-12T01:00:38;101972.58;;;1.50;93.51
57024;BME280;42916;54.346;18.562;2023-02-12T01:03:04;101974.97;;;1.52;93.29
57024;BME280;42916;54.346;18.562;2023-02-12T01:05:32;101976.58;;;1.50;93.15
57024;BME280;42916;54.346;18.562;2023-02-12T01:07:59;101977.96;;;1.47;92.84
57024;BME280;42916;54.346;18.562;2023-02-12T01:10:26;101978.21;;;1.46;92.91
57024;BME280;42916;54.346;18.562;2023-02-12T01:12:53;101982.39;;;1.44;92.95
57024;BME280;42916;54.346;18.562;2023-02-12T01:15:20;101987.37;;;1.42;92.68
57024;BME280;42916;54.346;18.562;2023-02-12T01:17:50;101992.16;;;1.41;92.64
57024;BME280;42916;54.346;18.562;2023-02-12T01:20:20;101994.87;;;1.40;92.31
57024;BME280;42916;54.346;18.562;2023-02-12T01:22:47;101994.89;;;1.39;92.53
57024;BME280;42916;54.346;18.562;2023-02-12T01:25:14;101996.45;;;1.37;92.71
57024;BME280;42916;54.346;18.562;2023-02-12T01:27:41;101997.42;;;1.37;92.95
57024;BME280;42916;54.346;18.562;2023-02-12T01:30:12;102004.71;;;1.37;92.98
57024;BME280;42916;54.346;18.562;2023-02-12T01:32:39;102013.35;;;1.33;92.90
57024;BME280;42916;54.346;18.562;2023-02-12T01:35:08;102012.25;;;1.24;92.71
57024;BME280;42916;54.346;18.562;2023-02-12T01:37:36;102010.13;;;1.17;92.79
57024;BME280;42916;54.346;18.562;2023-02-12T01:40:06;102015.10;;;1.11;92.77
57024;BME280;42916;54.346;18.562;2023-02-12T01:42:33;102018.58;;;1.04;92.62
57024;BME280;42916;54.346;18.562;2023-02-12T01:45:25;102021.66;;;0.98;92.82
57024;BME280;42916;54.346;18.562;2023-02-12T01:47:59;102024.92;;;0.92;92.90
57024;BME280;42916;54.346;18.562;2023-02-12T01:50:26;102030.72;;;0.89;93.03
57024;BME280;42916;54.346;18.562;2023-02-12T01:52:55;102034.41;;;0.86;93.27
57024;BME280;42916;54.346;18.562;2023-02-12T01:55:23;102032.31;;;0.87;93.82
57024;BME280;42916;54.346;18.562;2023-02-12T01:57:50;102029.64;;;0.88;94.21
57024;BME280;42916;54.346;18.562;2023-02-12T02:00:22;102032.41;;;0.87;94.16
57024;BME280;42916;54.346;18.562;2023-02-12T02:02:53;102039.60;;;0.81;93.82
57024;BME280;42916;54.346;18.562;2023-02-12T02:05:35;102039.98;;;0.73;93.95
57024;BME280;42916;54.346;18.562;2023-02-12T02:08:04;102036.13;;;0.66;93.98
57024;BME280;42916;54.346;18.562;2023-02-12T02:10:31;102039.02;;;0.64;94.38
57024;BME280;42916;54.346;18.562;2023-02-12T02:12:58;102039.65;;;0.62;94.52
57024;BME280;42916;54.346;18.562;2023-02-12T02:15:46;102037.48;;;0.58;94.32
57024;BME280;42916;54.346;18.562;2023-02-12T02:21:12;102046.04;;;0.47;93.95
57024;BME280;42916;54.346;18.562;2023-02-12T02:26:58;102053.14;;;0.37;94.35
57024;BME280;42916;54.346;18.562;2023-02-12T02:32:33;102046.23;;;0.23;94.74
57024;BME280;42916;54.346;18.562;2023-02-12T02:40:31;102057.60;;;0.01;94.95
57024;BME280;42916;54.346;18.562;2023-02-12T02:43:14;102052.95;;;-0.05;95.07
57024;BME280;42916;54.346;18.562;2023-02-12T02:45:46;102058.34;;;-0.11;95.03
57024;BME280;42916;54.346;18.562;2023-02-12T02:48:26;102056.90;;;-0.21;95.31
57024;BME280;42916;54.346;18.562;2023-02-12T02:51:03;102053.23;;;-0.29;95.33
57024;BME280;42916;54.346;18.562;2023-02-12T02:53:36;102054.42;;;-0.38;95.70
57024;BME280;42916;54.346;18.562;2023-02-12T02:56:06;102064.80;;;-0.44;95.99
57024;BME280;42916;54.346;18.562;2023-02-12T02:58:35;102063.98;;;-0.51;95.99
57024;BME280;42916;54.346;18.562;2023-02-12T03:01:05;102067.98;;;-0.59;95.99
57024;BME280;42916;54.346;18.562;2023-02-12T03:06:11;102072.30;;;-0.71;96.21
57024;BME280;42916;54.346;18.562;2023-02-12T03:08:45;102075.55;;;-0.78;96.32
57024;BME280;42916;54.346;18.562;2023-02-12T03:11:21;102079.38;;;-0.87;96.37
57024;BME280;42916;54.346;18.562;2023-02-12T03:14:01;102090.10;;;-0.95;96.80
57024;BME280;42916;54.346;18.562;2023-02-12T03:16:34;102097.23;;;-1.03;96.94
57024;BME280;42916;54.346;18.562;2023-02-12T03:19:07;102103.92;;;-1.10;96.88
57024;BME280;42916;54.346;18.562;2023-02-12T03:21:45;102100.55;;;-1.15;97.19
57024;BME280;42916;54.346;18.562;2023-02-12T03:25:00;102102.81;;;-1.18;97.23
57024;BME280;42916;54.346;18.562;2023-02-12T03:27:34;102106.59;;;-1.25;97.20
57024;BME280;42916;54.346;18.562;2023-02-12T03:30:03;102116.77;;;-1.31;97.45
57024;BME280;42916;54.346;18.562;2023-02-12T03:35:36;102118.71;;;-1.43;97.92
57024;BME280;42916;54.346;18.562;2023-02-12T03:38:30;102128.10;;;-1.51;97.91
57024;BME280;42916;54.346;18.562;2023-02-12T03:41:18;102132.42;;;-1.56;97.91
57024;BME280;42916;54.346;18.562;2023-02-12T03:44:17;102136.07;;;-1.58;98.18
57024;BME280;42916;54.346;18.562;2023-02-12T03:47:10;102141.92;;;-1.61;98.40
57024;BME280;42916;54.346;18.562;2023-02-12T03:52:13;102144.13;;;-1.69;99.11
57024;BME280;42916;54.346;18.562;2023-02-12T03:54:39;102145.92;;;-1.74;99.22
57024;BME280;42916;54.346;18.562;2023-02-12T03:57:10;102147.89;;;-1.78;99.40
57024;BME280;42916;54.346;18.562;2023-02-12T03:59:39;102146.63;;;-1.80;99.55
57024;BME280;42916;54.346;18.562;2023-02-12T04:02:06;102140.85;;;-1.81;99.53
57024;BME280;42916;54.346;18.562;2023-02-12T04:04:33;102139.09;;;-1.83;99.61
57024;BME280;42916;54.346;18.562;2023-02-12T04:07:00;102147.67;;;-1.86;99.74
57024;BME280;42916;54.346;18.562;2023-02-12T04:09:27;102153.80;;;-1.89;99.94
57024;BME280;42916;54.346;18.562;2023-02-12T04:36:50;102172.42;;;-2.05;100.00
57024;BME280;42916;54.346;18.562;2023-02-12T04:39:23;102170.04;;;-2.07;100.00
57024;BME280;42916;54.346;18.562;2023-02-12T04:41:51;102173.08;;;-2.09;100.00
57024;BME280;42916;54.346;18.562;2023-02-12T04:44:22;102182.17;;;-2.12;100.00
57024;BME280;42916;54.346;18.562;2023-02-12T04:46:50;102183.95;;;-2.16;100.00
57024;BME280;42916;54.346;18.562;2023-02-12T04:49:19;102184.74;;;-2.19;100.00
57024;BME280;42916;54.346;18.562;2023-02-12T04:51:46;102184.05;;;-2.21;100.00
57024;BME280;42916;54.346;18.562;2023-02-12T04:54:15;102182.11;;;-2.24;100.00
57024;BME280;42916;54.346;18.562;2023-02-12T04:56:42;102181.99;;;-2.24;100.00
57024;BME280;42916;54.346;18.562;2023-02-12T04:59:09;102178.35;;;-2.25;100.00
57024;BME280;42916;54.346;18.562;2023-02-12T05:01:37;102185.35;;;-2.27;100.00
57024;BME280;42916;54.346;18.562;2023-02-12T05:04:05;102186.27;;;-2.27;100.00
57024;BME280;42916;54.346;18.562;2023-02-12T05:06:37;102186.42;;;-2.29;100.00
57024;BME280;42916;54.346;18.562;2023-02-12T05:09:05;102183.00;;;-2.30;100.00
57024;BME280;42916;54.346;18.562;2023-02-12T05:11:32;102180.13;;;-2.30;100.00
57024;BME280;42916;54.346;18.562;2023-02-12T05:13:59;102177.63;;;-2.30;100.00
57024;BME280;42916;54.346;18.562;2023-02-12T05:16:26;102180.48;;;-2.30;100.00
57024;BME280;42916;54.346;18.562;2023-02-12T05:18:53;102180.35;;;-2.33;100.00
57024;BME280;42916;54.346;18.562;2023-02-12T05:21:19;102182.33;;;-2.35;100.00
57024;BME280;42916;54.346;18.562;2023-02-12T05:23:46;102186.30;;;-2.36;100.00
57024;BME280;42916;54.346;18.562;2023-02-12T05:26:16;102193.98;;;-2.37;100.00
57024;BME280;42916;54.346;18.562;2023-02-12T05:28:43;102189.79;;;-2.35;100.00
57024;BME280;42916;54.346;18.562;2023-02-12T05:31:14;102190.23;;;-2.34;100.00
57024;BME280;42916;54.346;18.562;2023-02-12T05:33:42;102187.23;;;-2.32;100.00
57024;BME280;42916;54.346;18.562;2023-02-12T05:36:12;102184.70;;;-2.34;100.00
57024;BME280;42916;54.346;18.562;2023-02-12T05:38:39;102190.92;;;-2.34;100.00
57024;BME280;42916;54.346;18.562;2023-02-12T05:41:15;102188.98;;;-2.34;100.00
57024;BME280;42916;54.346;18.562;2023-02-12T05:43:42;102196.30;;;-2.35;100.00
57024;BME280;42916;54.346;18.562;2023-02-12T05:46:09;102195.86;;;-2.33;100.00
57024;BME280;42916;54.346;18.562;2023-02-12T05:48:37;102202.37;;;-2.33;100.00
57024;BME280;42916;54.346;18.562;2023-02-12T05:51:07;102203.09;;;-2.32;100.00
57024;BME280;42916;54.346;18.562;2023-02-12T05:53:37;102206.31;;;-2.35;100.00
57024;BME280;42916;54.346;18.562;2023-02-12T05:56:13;102203.77;;;-2.37;100.00
57024;BME280;42916;54.346;18.562;2023-02-12T05:58:42;102202.61;;;-2.36;100.00
57024;BME280;42916;54.346;18.562;2023-02-12T06:01:33;102200.56;;;-2.32;100.00
57024;BME280;42916;54.346;18.562;2023-02-12T06:04:02;102209.44;;;-2.28;100.00
57024;BME280;42916;54.346;18.562;2023-02-12T06:06:30;102214.55;;;-2.27;100.00
57024;BME280;42916;54.346;18.562;2023-02-12T06:08:58;102221.19;;;-2.26;100.00
57024;BME280;42916;54.346;18.562;2023-02-12T06:11:25;102222.59;;;-2.25;100.00
57024;BME280;42916;54.346;18.562;2023-02-12T06:13:52;102227.00;;;-2.23;100.00
57024;BME280;42916;54.346;18.562;2023-02-12T06:16:24;102236.02;;;-2.20;100.00
57024;BME280;42916;54.346;18.562;2023-02-12T06:18:53;102235.15;;;-2.18;100.00
57024;BME280;42916;54.346;18.562;2023-02-12T06:21:21;102245.42;;;-2.13;100.00
57024;BME280;42916;54.346;18.562;2023-02-12T06:23:49;102253.83;;;-2.10;100.00
57024;BME280;42916;54.346;18.562;2023-02-12T06:26:16;102248.27;;;-2.07;100.00
57024;BME280;42916;54.346;18.562;2023-02-12T06:28:43;102249.48;;;-2.04;100.00
57024;BME280;42916;54.346;18.562;2023-02-12T06:33:49;102256.05;;;-1.98;100.00
57024;BME280;42916;54.346;18.562;2023-02-12T06:36:17;102258.55;;;-1.94;100.00
57024;BME280;42916;54.346;18.562;2023-02-12T06:38:44;102252.59;;;-1.88;100.00
57024;BME280;42916;54.346;18.562;2023-02-12T06:41:11;102256.80;;;-1.81;100.00
57024;BME280;42916;54.346;18.562;2023-02-12T06:43:38;102260.92;;;-1.75;100.00
57024;BME280;42916;54.346;18.562;2023-02-12T06:46:05;102261.53;;;-1.69;100.00
57024;BME280;42916;54.346;18.562;2023-02-12T06:48:32;102266.15;;;-1.65;100.00
57024;BME280;42916;54.346;18.562;2023-02-12T06:51:22;102266.28;;;-1.60;100.00
57024;BME280;42916;54.346;18.562;2023-02-12T06:53:51;102264.02;;;-1.57;100.00
57024;BME280;42916;54.346;18.562;2023-02-12T06:56:18;102266.27;;;-1.52;100.00
57024;BME280;42916;54.346;18.562;2023-02-12T06:58:50;102258.27;;;-1.45;100.00
57024;BME280;42916;54.346;18.562;2023-02-12T07:01:24;102265.86;;;-1.37;100.00
57024;BME280;42916;54.346;18.562;2023-02-12T07:03:56;102271.95;;;-1.28;100.00
57024;BME280;42916;54.346;18.562;2023-02-12T07:06:25;102267.48;;;-1.24;100.00
57024;BME280;42916;54.346;18.562;2023-02-12T07:08:54;102263.06;;;-1.16;100.00
57024;BME280;42916;54.346;18.562;2023-02-12T07:11:29;102260.32;;;-1.03;100.00
57024;BME280;42916;54.346;18.562;2023-02-12T07:13:56;102252.21;;;-0.85;100.00
57024;BME280;42916;54.346;18.562;2023-02-12T07:16:24;102252.91;;;-0.69;100.00
57024;BME280;42916;54.346;18.562;2023-02-12T07:18:51;102246.67;;;-0.51;100.00
57024;BME280;42916;54.346;18.562;2023-02-12T07:21:18;102243.66;;;-0.35;100.00
57024;BME280;42916;54.346;18.562;2023-02-12T07:23:46;102244.32;;;-0.24;100.00
57024;BME280;42916;54.346;18.562;2023-02-12T07:26:14;102245.80;;;-0.13;100.00
57024;BME280;42916;54.346;18.562;2023-02-12T07:28:41;102243.48;;;-0.01;100.00
57024;BME280;42916;54.346;18.562;2023-02-12T07:31:11;102244.97;;;0.10;100.00
57024;BME280;42916;54.346;18.562;2023-02-12T07:33:39;102253.45;;;0.20;100.00
57024;BME280;42916;54.346;18.562;2023-02-12T07:36:08;102258.37;;;0.29;100.00
57024;BME280;42916;54.346;18.562;2023-02-12T07:38:35;102252.20;;;0.36;100.00
57024;BME280;42916;54.346;18.562;2023-02-12T07:41:12;102250.90;;;0.43;100.00
57024;BME280;42916;54.346;18.562;2023-02-12T07:43:40;102252.05;;;0.49;100.00
57024;BME280;42916;54.346;18.562;2023-02-12T07:46:18;102246.52;;;0.59;100.00
57024;BME280;42916;54.346;18.562;2023-02-12T07:48:46;102249.79;;;0.66;100.00
57024;BME280;42916;54.346;18.562;2023-02-12T07:51:15;102247.20;;;0.72;100.00
57024;BME280;42916;54.346;18.562;2023-02-12T07:53:44;102248.63;;;0.80;100.00
57024;BME280;42916;54.346;18.562;2023-02-12T07:56:16;102246.22;;;0.87;100.00
57024;BME280;42916;54.346;18.562;2023-02-12T07:58:44;102249.68;;;0.93;100.00
57024;BME280;42916;54.346;18.562;2023-02-12T08:01:21;102244.98;;;1.00;100.00
57024;BME280;42916;54.346;18.562;2023-02-12T08:03:50;102245.27;;;1.06;100.00
57024;BME280;42916;54.346;18.562;2023-02-12T08:08:45;102241.40;;;1.18;100.00
57024;BME280;42916;54.346;18.562;2023-02-12T08:11:13;102240.04;;;1.27;100.00
57024;BME280;42916;54.346;18.562;2023-02-12T08:13:40;102243.96;;;1.33;99.95
57024;BME280;42916;54.346;18.562;2023-02-12T08:16:10;102236.80;;;1.34;99.99
57024;BME280;42916;54.346;18.562;2023-02-12T08:18:37;102241.11;;;1.38;99.90
57024;BME280;42916;54.346;18.562;2023-02-12T08:21:10;102246.64;;;1.40;99.77
57024;BME280;42916;54.346;18.562;2023-02-12T08:23:38;102250.71;;;1.41;99.31
57024;BME280;42916;54.346;18.562;2023-02-12T08:28:38;102255.61;;;1.40;98.75
57024;BME280;42916;54.346;18.562;2023-02-12T08:31:07;102253.59;;;1.47;99.11
57024;BME280;42916;54.346;18.562;2023-02-12T08:33:35;102258.13;;;1.56;98.69
57024;BME280;42916;54.346;18.562;2023-02-12T08:36:07;102251.42;;;1.63;98.22
57024;BME280;42916;54.346;18.562;2023-02-12T08:38:35;102249.77;;;1.72;98.61
57024;BME280;42916;54.346;18.562;2023-02-12T08:41:10;102241.09;;;1.84;99.09
57024;BME280;42916;54.346;18.562;2023-02-12T08:43:38;102237.24;;;1.94;98.93
57024;BME280;42916;54.346;18.562;2023-02-12T08:46:07;102242.77;;;2.01;98.65
57024;BME280;42916;54.346;18.562;2023-02-12T08:48:35;102239.71;;;2.09;98.58
57024;BME280;42916;54.346;18.562;2023-02-12T08:51:13;102243.83;;;2.16;98.00
57024;BME280;42916;54.346;18.562;2023-02-12T08:53:42;102245.56;;;2.21;97.87
57024;BME280;42916;54.346;18.562;2023-02-12T08:56:10;102236.59;;;2.28;97.92
57024;BME280;42916;54.346;18.562;2023-02-12T08:58:37;102234.90;;;2.32;97.66
57024;BME280;42916;54.346;18.562;2023-02-12T09:01:13;102236.86;;;2.39;97.01
57024;BME280;42916;54.346;18.562;2023-02-12T09:03:42;102241.90;;;2.47;96.69
57024;BME280;42916;54.346;18.562;2023-02-12T09:06:09;102240.23;;;2.57;97.02
57024;BME280;42916;54.346;18.562;2023-02-12T09:08:37;102240.08;;;2.65;96.37
57024;BME280;42916;54.346;18.562;2023-02-12T09:11:06;102245.56;;;2.71;96.32
57024;BME280;42916;54.346;18.562;2023-02-12T09:13:33;102242.99;;;2.77;96.07
57024;BME280;42916;54.346;18.562;2023-02-12T09:16:02;102236.48;;;2.81;95.83
57024;BME280;42916;54.346;18.562;2023-02-12T09:18:29;102233.12;;;2.84;95.79
57024;BME280;42916;54.346;18.562;2023-02-12T09:21:04;102228.57;;;2.88;95.60
57024;BME280;42916;54.346;18.562;2023-02-12T09:23:31;102226.10;;;2.93;95.43
57024;BME280;42916;54.346;18.562;2023-02-12T09:25:59;102228.09;;;2.98;95.39
57024;BME280;42916;54.346;18.562;2023-02-12T09:28:25;102233.05;;;3.02;95.24
57024;BME280;42916;54.346;18.562;2023-02-12T09:30:52;102234.54;;;3.05;95.08
57024;BME280;42916;54.346;18.562;2023-02-12T09:33:19;102239.41;;;3.13;94.97
57024;BME280;42916;54.346;18.562;2023-02-12T09:35:46;102248.29;;;3.19;94.62
57024;BME280;42916;54.346;18.562;2023-02-12T09:38:12;102246.88;;;3.27;94.45
57024;BME280;42916;54.346;18.562;2023-02-12T09:40:50;102241.30;;;3.34;94.34
57024;BME280;42916;54.346;18.562;2023-02-12T09:43:50;102235.63;;;3.46;94.40
57024;BME280;42916;54.346;18.562;2023-02-12T09:51:49;102216.73;;;3.73;93.32
57024;BME280;42916;54.346;18.562;2023-02-12T09:54:22;102217.83;;;3.80;92.71
57024;BME280;42916;54.346;18.562;2023-02-12T09:56:56;102218.23;;;3.83;92.52
57024;BME280;42916;54.346;18.562;2023-02-12T09:59:40;102219.84;;;3.88;92.05
57024;BME280;42916;54.346;18.562;2023-02-12T10:02:14;102223.23;;;3.96;91.55
57024;BME280;42916;54.346;18.562;2023-02-12T10:04:48;102220.88;;;4.06;91.64
57024;BME280;42916;54.346;18.562;2023-02-12T10:07:18;102222.50;;;4.13;91.28
57024;BME280;42916;54.346;18.562;2023-02-12T10:10:35;102220.41;;;4.14;90.75
57024;BME280;42916;54.346;18.562;2023-02-12T10:13:11;102216.64;;;4.16;90.33
57024;BME280;42916;54.346;18.562;2023-02-12T10:26:56;102200.55;;;4.49;88.91
57024;BME280;42916;54.346;18.562;2023-02-12T10:29:27;102193.67;;;4.50;88.79
57024;BME280;42916;54.346;18.562;2023-02-12T10:32:01;102193.84;;;4.56;88.58
57024;BME280;42916;54.346;18.562;2023-02-12T10:34:35;102191.43;;;4.62;87.93
57024;BME280;42916;54.346;18.562;2023-02-12T10:37:08;102187.42;;;4.63;87.19
57024;BME280;42916;54.346;18.562;2023-02-12T10:39:42;102176.45;;;4.60;86.62
57024;BME280;42916;54.346;18.562;2023-02-12T10:42:18;102171.75;;;4.58;86.42
57024;BME280;42916;54.346;18.562;2023-02-12T10:44:47;102162.76;;;4.63;87.12
57024;BME280;42916;54.346;18.562;2023-02-12T10:47:21;102160.48;;;4.70;87.52
57024;BME280;42916;54.346;18.562;2023-02-12T10:49:57;102163.40;;;4.77;87.12
57024;BME280;42916;54.346;18.562;2023-02-12T10:52:47;102166.70;;;4.79;86.84
57024;BME280;42916;54.346;18.562;2023-02-12T10:55:24;102158.39;;;4.81;86.83
57024;BME280;42916;54.346;18.562;2023-02-12T10:57:51;102157.74;;;4.85;86.86
57024;BME280;42916;54.346;18.562;2023-02-12T11:00:26;102152.61;;;4.86;86.69
57024;BME280;42916;54.346;18.562;2023-02-12T11:05:34;102152.46;;;4.89;86.48
57024;BME280;42916;54.346;18.562;2023-02-12T11:08:02;102158.86;;;4.93;86.37
57024;BME280;42916;54.346;18.562;2023-02-12T11:13:25;102165.64;;;4.98;84.58
57024;BME280;42916;54.346;18.562;2023-02-12T11:15:56;102162.94;;;5.01;84.11
57024;BME280;42916;54.346;18.562;2023-02-12T11:18:32;102157.85;;;5.08;84.87
57024;BME280;42916;54.346;18.562;2023-02-12T11:21:10;102149.36;;;5.24;85.64
57024;BME280;42916;54.346;18.562;2023-02-12T11:23:43;102140.80;;;5.40;85.33
57024;BME280;42916;54.346;18.562;2023-02-12T11:29:01;102137.27;;;5.57;84.08
57024;BME280;42916;54.346;18.562;2023-02-12T11:31:31;102131.69;;;5.57;83.11
57024;BME280;42916;54.346;18.562;2023-02-12T11:34:06;102136.19;;;5.60;83.55
57024;BME280;42916;54.346;18.562;2023-02-12T11:36:41;102136.99;;;5.61;82.05
57024;BME280;42916;54.346;18.562;2023-02-12T11:42:16;102131.98;;;5.69;81.28
57024;BME280;42916;54.346;18.562;2023-02-12T11:45:02;102130.77;;;5.73;80.84
57024;BME280;42916;54.346;18.562;2023-02-12T11:47:33;102131.92;;;5.67;79.82
57024;BME280;42916;54.346;18.562;2023-02-12T11:50:14;102130.19;;;5.70;80.58
57024;BME280;42916;54.346;18.562;2023-02-12T11:53:02;102136.84;;;5.70;80.11
57024;BME280;42916;54.346;18.562;2023-02-12T11:55:35;102133.69;;;5.60;79.04
57024;BME280;42916;54.346;18.562;2023-02-12T12:06:42;102127.73;;;5.60;81.04
57024;BME280;42916;54.346;18.562;2023-02-12T12:09:28;102125.35;;;5.65;79.78
57024;BME280;42916;54.346;18.562;2023-02-12T12:14:56;102120.20;;;5.60;80.85
57024;BME280;42916;54.346;18.562;2023-02-12T12:17:47;102119.69;;;5.41;80.99
57024;BME280;42916;54.346;18.562;2023-02-12T12:21:00;102109.35;;;5.28;81.80
57024;BME280;42916;54.346;18.562;2023-02-12T12:23:47;102108.02;;;5.11;82.43
57024;BME280;42916;54.346;18.562;2023-02-12T12:26:22;102102.09;;;4.91;83.13
57024;BME280;42916;54.346;18.562;2023-02-12T12:29:12;102108.27;;;4.76;84.31
57024;BME280;42916;54.346;18.562;2023-02-12T12:32:02;102097.94;;;4.68;85.38
57024;BME280;42916;54.346;18.562;2023-02-12T12:34:30;102108.87;;;4.58;86.02
57024;BME280;42916;54.346;18.562;2023-02-12T12:37:45;102090.67;;;4.38;86.32
57024;BME280;42916;54.346;18.562;2023-02-12T12:45:01;102086.64;;;3.90;88.95
57024;BME280;42916;54.346;18.562;2023-02-12T12:56:31;102047.30;;;3.87;91.11
57024;BME280;42916;54.346;18.562;2023-02-12T13:05:32;102045.30;;;3.72;92.37
57024;BME280;42916;54.346;18.562;2023-02-12T13:07:50;102052.76;;;3.63;92.61
57024;BME280;42916;54.346;18.562;2023-02-12T13:13:47;102063.36;;;3.47;94.24
57024;BME280;42916;54.346;18.562;2023-02-12T13:16:18;102076.14;;;3.45;95.28
57024;BME280;42916;54.346;18.562;2023-02-12T13:27:41;102092.61;;;3.33;97.59
57024;BME280;42916;54.346;18.562;2023-02-12T13:32:41;102085.53;;;3.24;98.49
57024;BME280;42916;54.346;18.562;2023-02-12T13:35:21;102092.78;;;3.21;98.36
57024;BME280;42916;54.346;18.562;2023-02-12T13:40:40;102079.14;;;3.20;99.58
57024;BME280;42916;54.346;18.562;2023-02-12T13:43:33;102072.33;;;3.13;100.00
57024;BME280;42916;54.346;18.562;2023-02-12T13:46:11;102074.98;;;3.12;99.99
57024;BME280;42916;54.346;18.562;2023-02-12T13:51:49;102083.83;;;3.13;100.00
57024;BME280;42916;54.346;18.562;2023-02-12T14:01:38;102076.31;;;3.03;100.00
57024;BME280;42916;54.346;18.562;2023-02-12T14:05:24;102079.70;;;3.05;100.00
57024;BME280;42916;54.346;18.562;2023-02-12T14:07:45;102076.67;;;3.05;100.00
57024;BME280;42916;54.346;18.562;2023-02-12T14:10:35;102066.13;;;3.06;100.00
57024;BME280;42916;54.346;18.562;2023-02-12T14:13:11;102069.86;;;3.06;100.00
57024;BME280;42916;54.346;18.562;2023-02-12T14:15:48;102070.73;;;3.06;100.00
57024;BME280;42916;54.346;18.562;2023-02-12T14:18:33;102070.52;;;3.12;100.00
57024;BME280;42916;54.346;18.562;2023-02-12T14:23:41;102070.00;;;3.20;100.00
57024;BME280;42916;54.346;18.562;2023-02-12T14:26:19;102064.83;;;3.19;100.00
57024;BME280;42916;54.346;18.562;2023-02-12T14:29:16;102063.56;;;3.20;100.00
57024;BME280;42916;54.346;18.562;2023-02-12T14:31:46;102063.79;;;3.23;100.00
57024;BME280;42916;54.346;18.562;2023-02-12T14:36:43;102053.35;;;3.28;100.00
57024;BME280;42916;54.346;18.562;2023-02-12T14:42:54;102045.20;;;3.39;100.00
57024;BME280;42916;54.346;18.562;2023-02-12T14:45:30;102051.09;;;3.44;100.00
57024;BME280;42916;54.346;18.562;2023-02-12T14:48:01;102049.17;;;3.50;100.00
57024;BME280;42916;54.346;18.562;2023-02-12T14:50:36;102053.14;;;3.55;100.00
57024;BME280;42916;54.346;18.562;2023-02-12T14:53:25;102056.95;;;3.57;100.00
57024;BME280;42916;54.346;18.562;2023-02-12T14:55:57;102055.73;;;3.56;100.00
57024;BME280;42916;54.346;18.562;2023-02-12T14:58:26;102056.27;;;3.54;100.00
57024;BME280;42916;54.346;18.562;2023-02-12T15:01:01;102060.21;;;3.54;100.00
57024;BME280;42916;54.346;18.562;2023-02-12T15:03:45;102066.69;;;3.54;100.00
57024;BME280;42916;54.346;18.562;2023-02-12T15:06:46;102071.98;;;3.55;100.00
57024;BME280;42916;54.346;18.562;2023-02-12T15:09:28;102073.48;;;3.54;100.00
57024;BME280;42916;54.346;18.562;2023-02-12T15:12:26;102067.27;;;3.55;100.00
57024;BME280;42916;54.346;18.562;2023-02-12T15:15:30;102060.38;;;3.54;100.00
57024;BME280;42916;54.346;18.562;2023-02-12T15:18:33;102048.46;;;3.53;100.00
57024;BME280;42916;54.346;18.562;2023-02-12T15:21:35;102038.81;;;3.55;100.00
57024;BME280;42916;54.346;18.562;2023-02-12T15:24:09;102035.79;;;3.56;100.00
57024;BME280;42916;54.346;18.562;2023-02-12T15:26:54;102035.48;;;3.52;100.00
57024;BME280;42916;54.346;18.562;2023-02-12T15:29:27;102039.69;;;3.48;100.00
57024;BME280;42916;54.346;18.562;2023-02-12T15:32:03;102036.79;;;3.44;100.00
57024;BME280;42916;54.346;18.562;2023-02-12T15:34:36;102054.48;;;3.43;100.00
57024;BME280;42916;54.346;18.562;2023-02-12T15:37:14;102049.04;;;3.40;100.00
57024;BME280;42916;54.346;18.562;2023-02-12T15:39:45;102039.14;;;3.38;100.00
57024;BME280;42916;54.346;18.562;2023-02-12T15:42:35;102027.81;;;3.37;100.00
57024;BME280;42916;54.346;18.562;2023-02-12T15:47:36;102020.92;;;3.34;100.00